Kydon — SWBZ — position and weather

sailwx.info

Track history (hours):
 
Tides and Currents Weather Stations Pressure Air Temp Water Temp Dewpoint Dewpoint Depression Visibility Wind Speed Wind Dir Waves Ship Positions

Kydon

Last reported at 2016-Dec-02 13:33 UTC. Time now 2016-Dec-08 16:08 UTC.
Position N 38°15' E 021°20'.

Length 192 m; draft 6.4 m.

Type: Passenger vessel. MMSI: 239593000.

Date/timePositionNaut miles runAvg speedWind from/ knotsBaromVisibWave heightAir tempDewpointWater temp
2016-Dec-02 13:33N 38°15' E 021°20'  
2016-Nov-27 18:05N 44°14' E 013°12'1221.6
2016-Nov-27 17:32N 44°25' E 013°07'2221.6
2016-Nov-27 16:32N 44°46' E 012°57'2121.5
2016-Nov-27 15:32N 45°05' E 012°43'2020.3
2016-Nov-27 14:32N 45°19' E 012°23'8 8.1
2016-Nov-27 13:33N 45°25' E 012°15'0 0.0
2016-Nov-27 12:34N 45°25' E 012°15'0 0.0
2016-Nov-27 11:34N 45°25' E 012°15'0 0.0
2016-Nov-27 10:34N 45°25' E 012°15'0 0.0
2016-Nov-27 09:33N 45°25' E 012°15'1 0.8
2016-Nov-27 08:33N 45°25' E 012°16'8 8.0
2016-Nov-27 07:32N 45°19' E 012°24'4 3.6
2016-Nov-27 06:34N 45°21' E 012°28'0 0.1
2016-Nov-27 05:32N 45°21' E 012°28'1111.4
2016-Nov-27 04:34N 45°13' E 012°38'2019.8
2016-Nov-27 03:34N 45°03' E 013°03'2020.2
2016-Nov-27 02:34N 44°52' E 013°26'2120.7
2016-Nov-27 01:34N 44°35' E 013°42'2120.9
2016-Nov-27 00:32N 44°17' E 013°58'  
Track history (hours):
 
Tides and Currents Weather Stations Pressure Air Temp Water Temp Dewpoint Dewpoint Depression Visibility Wind Speed Wind Dir Waves Ship Positions

Kydon

Last reported at 2016-Dec-02 13:33 UTC. Time now 2016-Dec-08 16:08 UTC.
Position N 38°15' E 021°20'.

Length 192 m; draft 6.4 m.

Type: Passenger vessel. MMSI: 239593000.

Date/timePositionNaut miles runAvg speedWind from/ knotsBaromVisibWave heightAir tempDewpointWater temp
2016-Dec-02 13:33N 38°15' E 021°20'  
2016-Nov-27 18:05N 44°14' E 013°12'1221.6
2016-Nov-27 17:32N 44°25' E 013°07'2221.6
2016-Nov-27 16:32N 44°46' E 012°57'2121.5
2016-Nov-27 15:32N 45°05' E 012°43'2020.3
2016-Nov-27 14:32N 45°19' E 012°23'8 8.1
2016-Nov-27 13:33N 45°25' E 012°15'0 0.0
2016-Nov-27 12:34N 45°25' E 012°15'0 0.0
2016-Nov-27 11:34N 45°25' E 012°15'0 0.0
2016-Nov-27 10:34N 45°25' E 012°15'0 0.0
2016-Nov-27 09:33N 45°25' E 012°15'1 0.8
2016-Nov-27 08:33N 45°25' E 012°16'8 8.0
2016-Nov-27 07:32N 45°19' E 012°24'4 3.6
2016-Nov-27 06:34N 45°21' E 012°28'0 0.1
2016-Nov-27 05:32N 45°21' E 012°28'1111.4
2016-Nov-27 04:34N 45°13' E 012°38'2019.8
2016-Nov-27 03:34N 45°03' E 013°03'2020.2
2016-Nov-27 02:34N 44°52' E 013°26'2120.7
2016-Nov-27 01:34N 44°35' E 013°42'2120.9
2016-Nov-27 00:32N 44°17' E 013°58'  

Dump ship's entire track history